sensor_id;sensor_type;location;lat;lon;timestamp;pressure;altitude;pressure_sealevel;temperature;humidity
74310;BME280;62722;51.142;17.052;2023-04-30T00:00:12;100383.13;;;10.28;82.07
74310;BME280;62722;51.142;17.052;2023-04-30T00:02:59;100384.19;;;10.25;82.00
74310;BME280;62722;51.142;17.052;2023-04-30T00:05:27;100374.56;;;10.24;82.10
74310;BME280;62722;51.142;17.052;2023-04-30T00:07:54;100386.91;;;10.24;82.38
74310;BME280;62722;51.142;17.052;2023-04-30T00:10:22;100387.69;;;10.26;82.05
74310;BME280;62722;51.142;17.052;2023-04-30T00:12:50;100386.91;;;10.24;81.77
74310;BME280;62722;51.142;17.052;2023-04-30T00:15:18;100380.88;;;10.22;81.88
74310;BME280;62722;51.142;17.052;2023-04-30T00:17:45;100379.00;;;10.24;82.33
74310;BME280;62722;51.142;17.052;2023-04-30T00:20:12;100374.84;;;10.20;82.44
74310;BME280;62722;51.142;17.052;2023-04-30T00:22:40;100391.63;;;10.19;81.67
74310;BME280;62722;51.142;17.052;2023-04-30T00:25:08;100390.13;;;10.15;82.10
74310;BME280;62722;51.142;17.052;2023-04-30T00:27:35;100394.56;;;10.14;82.19
74310;BME280;62722;51.142;17.052;2023-04-30T00:30:05;100395.22;;;10.18;82.94
74310;BME280;62722;51.142;17.052;2023-04-30T00:32:33;100398.03;;;10.15;82.72
74310;BME280;62722;51.142;17.052;2023-04-30T00:35:00;100399.53;;;10.05;82.43
74310;BME280;62722;51.142;17.052;2023-04-30T00:37:27;100403.94;;;10.04;82.29
74310;BME280;62722;51.142;17.052;2023-04-30T00:39:55;100403.09;;;10.04;82.73
74310;BME280;62722;51.142;17.052;2023-04-30T00:42:23;100410.22;;;10.02;83.00
74310;BME280;62722;51.142;17.052;2023-04-30T00:44:50;100413.72;;;10.02;82.90
74310;BME280;62722;51.142;17.052;2023-04-30T00:47:19;100414.69;;;10.01;82.42
74310;BME280;62722;51.142;17.052;2023-04-30T00:49:47;100422.47;;;10.03;82.95
74310;BME280;62722;51.142;17.052;2023-04-30T00:52:14;100418.06;;;10.03;82.86
74310;BME280;62722;51.142;17.052;2023-04-30T00:54:42;100420.63;;;10.05;82.50
74310;BME280;62722;51.142;17.052;2023-04-30T00:57:11;100432.66;;;10.09;82.72
74310;BME280;62722;51.142;17.052;2023-04-30T00:59:40;100430.13;;;10.07;81.99
74310;BME280;62722;51.142;17.052;2023-04-30T01:02:08;100433.63;;;10.08;82.00
74310;BME280;62722;51.142;17.052;2023-04-30T01:04:37;100438.31;;;10.03;82.08
74310;BME280;62722;51.142;17.052;2023-04-30T01:07:05;100429.47;;;10.04;82.95
74310;BME280;62722;51.142;17.052;2023-04-30T01:09:33;100427.56;;;10.06;82.54
74310;BME280;62722;51.142;17.052;2023-04-30T01:12:07;100443.09;;;9.96;83.01
74310;BME280;62722;51.142;17.052;2023-04-30T01:14:42;100438.22;;;9.90;83.14
74310;BME280;62722;51.142;17.052;2023-04-30T01:17:16;100438.03;;;9.93;82.99
74310;BME280;62722;51.142;17.052;2023-04-30T01:19:49;100439.69;;;9.94;83.94
74310;BME280;62722;51.142;17.052;2023-04-30T01:22:30;100443.47;;;9.90;83.09
74310;BME280;62722;51.142;17.052;2023-04-30T01:25:09;100433.88;;;9.89;83.35
74310;BME280;62722;51.142;17.052;2023-04-30T01:28:03;100442.63;;;9.90;83.08
74310;BME280;62722;51.142;17.052;2023-04-30T01:30:32;100442.78;;;9.87;83.70
74310;BME280;62722;51.142;17.052;2023-04-30T01:33:00;100443.75;;;9.86;83.40
74310;BME280;62722;51.142;17.052;2023-04-30T01:35:51;100441.84;;;9.73;83.49
74310;BME280;62722;51.142;17.052;2023-04-30T01:38:30;100447.78;;;9.77;84.11
74310;BME280;62722;51.142;17.052;2023-04-30T01:41:08;100448.81;;;9.74;83.96
74310;BME280;62722;51.142;17.052;2023-04-30T01:43:45;100454.09;;;9.74;83.89
74310;BME280;62722;51.142;17.052;2023-04-30T01:46:20;100451.72;;;9.70;83.46
74310;BME280;62722;51.142;17.052;2023-04-30T01:48:54;100449.34;;;9.65;84.46
74310;BME280;62722;51.142;17.052;2023-04-30T01:51:31;100443.31;;;9.63;83.69
74310;BME280;62722;51.142;17.052;2023-04-30T01:54:04;100445.97;;;9.63;83.74
74310;BME280;62722;51.142;17.052;2023-04-30T01:56:37;100449.72;;;9.59;84.74
74310;BME280;62722;51.142;17.052;2023-04-30T01:59:08;100454.97;;;9.59;84.48
74310;BME280;62722;51.142;17.052;2023-04-30T02:01:36;100448.25;;;9.54;84.28
74310;BME280;62722;51.142;17.052;2023-04-30T02:04:03;100461.81;;;9.48;84.68
74310;BME280;62722;51.142;17.052;2023-04-30T02:06:31;100458.50;;;9.44;84.90
74310;BME280;62722;51.142;17.052;2023-04-30T02:08:58;100454.78;;;9.33;84.67
74310;BME280;62722;51.142;17.052;2023-04-30T02:11:30;100460.16;;;9.31;85.41
74310;BME280;62722;51.142;17.052;2023-04-30T02:13:57;100466.53;;;9.27;85.24
74310;BME280;62722;51.142;17.052;2023-04-30T02:16:26;100471.13;;;9.23;86.47
74310;BME280;62722;51.142;17.052;2023-04-30T02:18:53;100474.19;;;9.16;85.32
74310;BME280;62722;51.142;17.052;2023-04-30T02:21:21;100468.06;;;9.15;85.16
74310;BME280;62722;51.142;17.052;2023-04-30T02:23:48;100472.84;;;9.09;85.73
74310;BME280;62722;51.142;17.052;2023-04-30T02:26:16;100474.88;;;9.04;85.87
74310;BME280;62722;51.142;17.052;2023-04-30T02:28:43;100475.91;;;9.01;85.50
74310;BME280;62722;51.142;17.052;2023-04-30T02:31:10;100469.09;;;8.97;85.44
74310;BME280;62722;51.142;17.052;2023-04-30T02:33:39;100474.25;;;8.99;85.75
74310;BME280;62722;51.142;17.052;2023-04-30T02:36:06;100478.69;;;8.98;85.76
74310;BME280;62722;51.142;17.052;2023-04-30T02:38:34;100480.50;;;8.98;86.16
74310;BME280;62722;51.142;17.052;2023-04-30T02:41:01;100478.09;;;8.93;85.58
74310;BME280;62722;51.142;17.052;2023-04-30T02:43:29;100469.69;;;8.87;85.26
74310;BME280;62722;51.142;17.052;2023-04-30T02:45:56;100483.63;;;8.89;85.06
74310;BME280;62722;51.142;17.052;2023-04-30T02:48:23;100483.63;;;8.89;84.85
74310;BME280;62722;51.142;17.052;2023-04-30T02:50:52;100483.28;;;8.79;84.86
74310;BME280;62722;51.142;17.052;2023-04-30T02:53:19;100491.06;;;8.80;85.18
74310;BME280;62722;51.142;17.052;2023-04-30T02:55:47;100484.09;;;8.79;85.28
74310;BME280;62722;51.142;17.052;2023-04-30T02:58:14;100500.00;;;8.78;85.34
74310;BME280;62722;51.142;17.052;2023-04-30T03:00:41;100499.22;;;8.76;85.09
74310;BME280;62722;51.142;17.052;2023-04-30T03:03:09;100497.59;;;8.73;84.48
74310;BME280;62722;51.142;17.052;2023-04-30T03:05:36;100500.22;;;8.73;85.18
74310;BME280;62722;51.142;17.052;2023-04-30T03:08:05;100494.63;;;8.64;86.02
74310;BME280;62722;51.142;17.052;2023-04-30T03:10:32;100504.47;;;8.60;85.69
74310;BME280;62722;51.142;17.052;2023-04-30T03:12:59;100503.00;;;8.55;86.07
74310;BME280;62722;51.142;17.052;2023-04-30T03:15:27;100509.28;;;8.52;85.33
74310;BME280;62722;51.142;17.052;2023-04-30T03:17:54;100513.00;;;8.48;84.71
74310;BME280;62722;51.142;17.052;2023-04-30T03:20:22;100516.38;;;8.50;84.75
74310;BME280;62722;51.142;17.052;2023-04-30T03:22:49;100516.31;;;8.52;84.43
74310;BME280;62722;51.142;17.052;2023-04-30T03:25:18;100513.69;;;8.52;84.17
74310;BME280;62722;51.142;17.052;2023-04-30T03:27:45;100513.94;;;8.47;83.73
74310;BME280;62722;51.142;17.052;2023-04-30T03:30:12;100530.63;;;8.46;84.43
74310;BME280;62722;51.142;17.052;2023-04-30T03:32:40;100517.66;;;8.43;84.07
74310;BME280;62722;51.142;17.052;2023-04-30T03:35:08;100530.81;;;8.43;84.33
74310;BME280;62722;51.142;17.052;2023-04-30T03:37:35;100540.41;;;8.44;84.29
74310;BME280;62722;51.142;17.052;2023-04-30T03:40:03;100527.59;;;8.38;84.83
74310;BME280;62722;51.142;17.052;2023-04-30T03:42:32;100535.47;;;8.38;85.65
74310;BME280;62722;51.142;17.052;2023-04-30T03:45:00;100547.66;;;8.39;85.09
74310;BME280;62722;51.142;17.052;2023-04-30T03:47:27;100545.19;;;8.36;85.90
74310;BME280;62722;51.142;17.052;2023-04-30T03:49:55;100547.94;;;8.35;85.92
74310;BME280;62722;51.142;17.052;2023-04-30T03:52:22;100548.78;;;8.35;85.11
74310;BME280;62722;51.142;17.052;2023-04-30T03:54:49;100553.94;;;8.37;85.28
74310;BME280;62722;51.142;17.052;2023-04-30T03:57:16;100560.97;;;8.36;84.61
74310;BME280;62722;51.142;17.052;2023-04-30T03:59:45;100565.31;;;8.37;85.08
74310;BME280;62722;51.142;17.052;2023-04-30T04:02:13;100561.94;;;8.35;84.77
74310;BME280;62722;51.142;17.052;2023-04-30T04:04:41;100571.50;;;8.36;83.59
74310;BME280;62722;51.142;17.052;2023-04-30T04:07:08;100577.84;;;8.32;83.20
74310;BME280;62722;51.142;17.052;2023-04-30T04:09:36;100582.97;;;8.35;83.08
74310;BME280;62722;51.142;17.052;2023-04-30T04:12:04;100580.63;;;8.29;83.05
74310;BME280;62722;51.142;17.052;2023-04-30T04:14:31;100587.59;;;8.30;82.93
74310;BME280;62722;51.142;17.052;2023-04-30T04:17:00;100586.94;;;8.25;82.28
74310;BME280;62722;51.142;17.052;2023-04-30T04:19:30;100594.94;;;8.23;82.17
74310;BME280;62722;51.142;17.052;2023-04-30T04:21:57;100594.06;;;8.23;81.53
74310;BME280;62722;51.142;17.052;2023-04-30T04:24:25;100586.34;;;8.20;81.84
74310;BME280;62722;51.142;17.052;2023-04-30T04:26:52;100588.03;;;8.21;81.60
74310;BME280;62722;51.142;17.052;2023-04-30T04:29:20;100589.44;;;8.11;82.12
74310;BME280;62722;51.142;17.052;2023-04-30T04:31:48;100594.25;;;8.20;83.13
74310;BME280;62722;51.142;17.052;2023-04-30T04:34:17;100601.97;;;8.23;82.44
74310;BME280;62722;51.142;17.052;2023-04-30T04:36:44;100610.59;;;8.25;82.47
74310;BME280;62722;51.142;17.052;2023-04-30T04:39:12;100607.72;;;8.31;82.13
74310;BME280;62722;51.142;17.052;2023-04-30T04:41:40;100612.97;;;8.31;82.19
74310;BME280;62722;51.142;17.052;2023-04-30T04:44:07;100619.78;;;8.35;81.38
74310;BME280;62722;51.142;17.052;2023-04-30T04:46:34;100614.38;;;8.38;81.34
74310;BME280;62722;51.142;17.052;2023-04-30T04:49:03;100626.56;;;8.39;81.50
74310;BME280;62722;51.142;17.052;2023-04-30T04:51:32;100629.81;;;8.44;81.79
74310;BME280;62722;51.142;17.052;2023-04-30T04:54:00;100636.97;;;8.42;80.69
74310;BME280;62722;51.142;17.052;2023-04-30T04:56:27;100637.09;;;8.39;80.50
74310;BME280;62722;51.142;17.052;2023-04-30T04:58:54;100643.91;;;8.43;81.49
74310;BME280;62722;51.142;17.052;2023-04-30T05:01:21;100641.19;;;8.45;81.08
74310;BME280;62722;51.142;17.052;2023-04-30T05:03:49;100646.25;;;8.49;80.80
74310;BME280;62722;51.142;17.052;2023-04-30T05:06:18;100648.94;;;8.48;80.17
74310;BME280;62722;51.142;17.052;2023-04-30T05:08:47;100654.88;;;8.51;80.16
74310;BME280;62722;51.142;17.052;2023-04-30T05:11:14;100653.75;;;8.57;79.53
74310;BME280;62722;51.142;17.052;2023-04-30T05:13:42;100649.41;;;8.56;79.65
74310;BME280;62722;51.142;17.052;2023-04-30T05:16:09;100649.94;;;8.62;80.39
74310;BME280;62722;51.142;17.052;2023-04-30T05:18:36;100652.50;;;8.64;79.45
74310;BME280;62722;51.142;17.052;2023-04-30T05:21:04;100660.47;;;8.62;79.65
74310;BME280;62722;51.142;17.052;2023-04-30T05:23:31;100666.28;;;8.52;79.17
74310;BME280;62722;51.142;17.052;2023-04-30T05:26:00;100662.63;;;8.54;79.98
74310;BME280;62722;51.142;17.052;2023-04-30T05:28:28;100662.41;;;8.59;80.48
74310;BME280;62722;51.142;17.052;2023-04-30T05:30:55;100664.00;;;8.61;79.68
74310;BME280;62722;51.142;17.052;2023-04-30T05:33:22;100677.16;;;8.61;78.63
74310;BME280;62722;51.142;17.052;2023-04-30T05:35:49;100673.63;;;8.62;78.76
74310;BME280;62722;51.142;17.052;2023-04-30T05:38:17;100667.59;;;8.60;79.00
74310;BME280;62722;51.142;17.052;2023-04-30T05:40:44;100670.97;;;8.62;78.90
74310;BME280;62722;51.142;17.052;2023-04-30T05:43:13;100665.03;;;8.59;79.16
74310;BME280;62722;51.142;17.052;2023-04-30T05:45:40;100670.28;;;8.59;78.86
74310;BME280;62722;51.142;17.052;2023-04-30T05:48:08;100670.06;;;8.63;79.94
74310;BME280;62722;51.142;17.052;2023-04-30T05:50:35;100671.44;;;8.70;79.01
74310;BME280;62722;51.142;17.052;2023-04-30T05:53:03;100680.19;;;8.71;78.08
74310;BME280;62722;51.142;17.052;2023-04-30T05:55:30;100679.81;;;8.78;79.19
74310;BME280;62722;51.142;17.052;2023-04-30T05:57:57;100681.81;;;8.73;78.33
74310;BME280;62722;51.142;17.052;2023-04-30T06:00:26;100682.50;;;8.77;77.94
74310;BME280;62722;51.142;17.052;2023-04-30T06:02:53;100673.00;;;8.74;77.40
74310;BME280;62722;51.142;17.052;2023-04-30T06:05:20;100682.59;;;8.75;77.35
74310;BME280;62722;51.142;17.052;2023-04-30T06:07:48;100686.75;;;8.79;77.19
74310;BME280;62722;51.142;17.052;2023-04-30T06:10:15;100684.69;;;8.86;76.60
74310;BME280;62722;51.142;17.052;2023-04-30T06:12:43;100707.19;;;8.92;76.37
74310;BME280;62722;51.142;17.052;2023-04-30T06:15:10;100700.84;;;8.96;76.17
74310;BME280;62722;51.142;17.052;2023-04-30T06:17:39;100693.56;;;9.01;76.73
74310;BME280;62722;51.142;17.052;2023-04-30T06:20:07;100703.91;;;9.04;75.32
74310;BME280;62722;51.142;17.052;2023-04-30T06:22:35;100705.47;;;9.08;76.09
74310;BME280;62722;51.142;17.052;2023-04-30T06:25:02;100703.69;;;9.08;75.90
74310;BME280;62722;51.142;17.052;2023-04-30T06:27:30;100708.09;;;9.08;75.73
74310;BME280;62722;51.142;17.052;2023-04-30T06:29:58;100709.72;;;9.10;76.62
74310;BME280;62722;51.142;17.052;2023-04-30T06:32:26;100702.91;;;9.06;74.97
74310;BME280;62722;51.142;17.052;2023-04-30T06:34:55;100715.66;;;9.14;75.71
74310;BME280;62722;51.142;17.052;2023-04-30T06:37:22;100707.75;;;9.14;74.75
74310;BME280;62722;51.142;17.052;2023-04-30T06:39:49;100718.59;;;9.25;75.98
74310;BME280;62722;51.142;17.052;2023-04-30T06:42:17;100715.78;;;9.28;75.09
74310;BME280;62722;51.142;17.052;2023-04-30T06:44:44;100707.66;;;9.33;75.42
74310;BME280;62722;51.142;17.052;2023-04-30T06:47:12;100713.28;;;9.42;75.41
74310;BME280;62722;51.142;17.052;2023-04-30T06:49:39;100713.88;;;9.47;74.66
74310;BME280;62722;51.142;17.052;2023-04-30T06:52:08;100713.19;;;9.44;74.08
74310;BME280;62722;51.142;17.052;2023-04-30T06:54:35;100711.06;;;9.50;75.04
74310;BME280;62722;51.142;17.052;2023-04-30T06:57:03;100715.06;;;9.57;73.49
74310;BME280;62722;51.142;17.052;2023-04-30T06:59:30;100719.25;;;9.61;73.28
74310;BME280;62722;51.142;17.052;2023-04-30T07:01:57;100724.28;;;9.66;73.84
74310;BME280;62722;51.142;17.052;2023-04-30T07:04:24;100724.78;;;9.72;73.76
74310;BME280;62722;51.142;17.052;2023-04-30T07:06:52;100729.31;;;9.70;72.39
74310;BME280;62722;51.142;17.052;2023-04-30T07:09:21;100739.06;;;9.68;71.77
74310;BME280;62722;51.142;17.052;2023-04-30T07:11:48;100737.88;;;9.74;72.61
74310;BME280;62722;51.142;17.052;2023-04-30T07:14:16;100730.84;;;9.74;72.23
74310;BME280;62722;51.142;17.052;2023-04-30T07:16:44;100732.78;;;9.71;72.79
74310;BME280;62722;51.142;17.052;2023-04-30T07:19:11;100742.06;;;9.78;72.08
74310;BME280;62722;51.142;17.052;2023-04-30T07:21:38;100747.09;;;9.83;71.75
74310;BME280;62722;51.142;17.052;2023-04-30T07:24:05;100736.56;;;9.83;72.91
74310;BME280;62722;51.142;17.052;2023-04-30T07:26:34;100731.97;;;9.86;72.24
74310;BME280;62722;51.142;17.052;2023-04-30T07:29:02;100742.84;;;9.96;72.56
74310;BME280;62722;51.142;17.052;2023-04-30T07:31:29;100739.59;;;10.06;72.09
74310;BME280;62722;51.142;17.052;2023-04-30T07:33:58;100737.75;;;10.08;70.44
74310;BME280;62722;51.142;17.052;2023-04-30T07:36:26;100743.69;;;10.12;70.83
74310;BME280;62722;51.142;17.052;2023-04-30T07:38:53;100747.97;;;10.14;69.38
74310;BME280;62722;51.142;17.052;2023-04-30T07:41:20;100750.75;;;10.11;69.70
74310;BME280;62722;51.142;17.052;2023-04-30T07:43:49;100749.56;;;10.17;70.18
74310;BME280;62722;51.142;17.052;2023-04-30T07:46:16;100759.94;;;10.20;70.12
74310;BME280;62722;51.142;17.052;2023-04-30T07:48:44;100761.66;;;10.21;69.49
74310;BME280;62722;51.142;17.052;2023-04-30T07:51:11;100747.28;;;10.27;69.59
74310;BME280;62722;51.142;17.052;2023-04-30T07:53:38;100757.41;;;10.34;69.03
74310;BME280;62722;51.142;17.052;2023-04-30T07:56:06;100751.03;;;10.38;68.72
74310;BME280;62722;51.142;17.052;2023-04-30T07:58:33;100765.16;;;10.37;67.89
74310;BME280;62722;51.142;17.052;2023-04-30T08:01:02;100767.59;;;10.40;68.71
74310;BME280;62722;51.142;17.052;2023-04-30T08:03:29;100770.25;;;10.40;67.91
74310;BME280;62722;51.142;17.052;2023-04-30T08:05:57;100764.97;;;10.40;69.32
74310;BME280;62722;51.142;17.052;2023-04-30T08:08:24;100772.94;;;10.39;68.26
74310;BME280;62722;51.142;17.052;2023-04-30T08:10:51;100765.16;;;10.37;68.44
74310;BME280;62722;51.142;17.052;2023-04-30T08:13:19;100772.28;;;10.35;67.32
74310;BME280;62722;51.142;17.052;2023-04-30T08:15:46;100773.75;;;10.41;68.44
74310;BME280;62722;51.142;17.052;2023-04-30T08:18:15;100773.56;;;10.44;67.21
74310;BME280;62722;51.142;17.052;2023-04-30T08:20:43;100777.06;;;10.44;66.30
74310;BME280;62722;51.142;17.052;2023-04-30T08:23:10;100769.31;;;10.41;67.08
74310;BME280;62722;51.142;17.052;2023-04-30T08:25:37;100769.72;;;10.49;68.00
74310;BME280;62722;51.142;17.052;2023-04-30T08:28:05;100774.72;;;10.54;67.03
74310;BME280;62722;51.142;17.052;2023-04-30T08:30:33;100760.22;;;10.61;65.47
74310;BME280;62722;51.142;17.052;2023-04-30T08:33:00;100769.50;;;10.68;65.32
74310;BME280;62722;51.142;17.052;2023-04-30T08:35:29;100762.09;;;10.74;66.34
74310;BME280;62722;51.142;17.052;2023-04-30T08:37:56;100771.16;;;10.85;65.54
74310;BME280;62722;51.142;17.052;2023-04-30T08:40:24;100764.97;;;10.86;63.99
74310;BME280;62722;51.142;17.052;2023-04-30T08:43:04;100765.25;;;10.95;64.75
74310;BME280;62722;51.142;17.052;2023-04-30T08:45:32;100775.94;;;10.94;62.53
74310;BME280;62722;51.142;17.052;2023-04-30T08:48:03;100766.47;;;10.90;62.23
74310;BME280;62722;51.142;17.052;2023-04-30T08:50:32;100771.66;;;10.91;62.99
74310;BME280;62722;51.142;17.052;2023-04-30T08:53:00;100780.06;;;10.98;62.58
74310;BME280;62722;51.142;17.052;2023-04-30T08:55:28;100765.38;;;10.94;61.01
74310;BME280;62722;51.142;17.052;2023-04-30T08:57:55;100776.69;;;11.10;61.48
74310;BME280;62722;51.142;17.052;2023-04-30T09:00:23;100772.94;;;11.14;61.36
74310;BME280;62722;51.142;17.052;2023-04-30T09:02:51;100793.41;;;11.10;57.55
74310;BME280;62722;51.142;17.052;2023-04-30T09:05:19;100793.31;;;11.12;55.88
74310;BME280;62722;51.142;17.052;2023-04-30T09:07:48;100787.09;;;11.13;58.59
74310;BME280;62722;51.142;17.052;2023-04-30T09:10:16;100783.22;;;11.04;57.88
74310;BME280;62722;51.142;17.052;2023-04-30T09:12:44;100780.88;;;11.14;56.38
74310;BME280;62722;51.142;17.052;2023-04-30T09:15:11;100790.91;;;11.23;56.52
74310;BME280;62722;51.142;17.052;2023-04-30T09:17:38;100789.19;;;11.22;55.17
74310;BME280;62722;51.142;17.052;2023-04-30T09:20:07;100781.94;;;11.26;56.68
74310;BME280;62722;51.142;17.052;2023-04-30T09:22:36;100784.13;;;11.33;58.14
74310;BME280;62722;51.142;17.052;2023-04-30T09:25:06;100792.72;;;11.37;57.89
74310;BME280;62722;51.142;17.052;2023-04-30T09:27:34;100798.63;;;11.26;55.80
74310;BME280;62722;51.142;17.052;2023-04-30T09:30:02;100790.34;;;11.32;57.55
74310;BME280;62722;51.142;17.052;2023-04-30T09:32:29;100797.31;;;11.33;56.89
74310;BME280;62722;51.142;17.052;2023-04-30T09:34:56;100797.41;;;11.32;54.63
74310;BME280;62722;51.142;17.052;2023-04-30T09:37:34;100806.59;;;11.40;55.80
74310;BME280;62722;51.142;17.052;2023-04-30T09:40:02;100786.97;;;11.44;56.09
74310;BME280;62722;51.142;17.052;2023-04-30T09:42:31;100795.56;;;11.62;57.22
74310;BME280;62722;51.142;17.052;2023-04-30T09:44:59;100794.81;;;11.60;56.80
74310;BME280;62722;51.142;17.052;2023-04-30T09:47:28;100799.78;;;11.50;56.44
74310;BME280;62722;51.142;17.052;2023-04-30T09:49:59;100788.00;;;11.56;55.36
74310;BME280;62722;51.142;17.052;2023-04-30T09:52:26;100781.41;;;11.49;55.41
74310;BME280;62722;51.142;17.052;2023-04-30T09:54:53;100800.72;;;11.49;53.69
74310;BME280;62722;51.142;17.052;2023-04-30T09:57:22;100796.47;;;11.47;54.08
74310;BME280;62722;51.142;17.052;2023-04-30T09:59:52;100782.34;;;11.48;53.34
74310;BME280;62722;51.142;17.052;2023-04-30T10:02:21;100786.56;;;11.50;55.24
74310;BME280;62722;51.142;17.052;2023-04-30T10:04:53;100782.91;;;11.53;55.03
74310;BME280;62722;51.142;17.052;2023-04-30T10:07:23;100787.03;;;11.57;55.24
74310;BME280;62722;51.142;17.052;2023-04-30T10:09:56;100776.97;;;11.63;55.98
74310;BME280;62722;51.142;17.052;2023-04-30T10:12:28;100783.13;;;11.78;55.08
74310;BME280;62722;51.142;17.052;2023-04-30T10:15:07;100776.22;;;11.76;51.09
74310;BME280;62722;51.142;17.052;2023-04-30T10:17:37;100781.69;;;11.73;49.63
74310;BME280;62722;51.142;17.052;2023-04-30T10:20:08;100776.03;;;11.79;48.00
74310;BME280;62722;51.142;17.052;2023-04-30T10:22:36;100764.03;;;11.87;50.53
74310;BME280;62722;51.142;17.052;2023-04-30T10:25:05;100776.75;;;11.95;51.76
74310;BME280;62722;51.142;17.052;2023-04-30T10:27:36;100787.16;;;11.98;52.62
74310;BME280;62722;51.142;17.052;2023-04-30T10:30:09;100770.94;;;11.90;53.04
74310;BME280;62722;51.142;17.052;2023-04-30T10:32:42;100768.66;;;11.84;52.17
74310;BME280;62722;51.142;17.052;2023-04-30T10:35:15;100773.91;;;11.98;54.36
74310;BME280;62722;51.142;17.052;2023-04-30T10:37:47;100784.88;;;12.06;54.67
74310;BME280;62722;51.142;17.052;2023-04-30T10:40:18;100767.50;;;12.02;54.69
74310;BME280;62722;51.142;17.052;2023-04-30T10:42:48;100769.13;;;11.90;52.18
74310;BME280;62722;51.142;17.052;2023-04-30T10:45:17;100768.84;;;11.95;52.29
74310;BME280;62722;51.142;17.052;2023-04-30T10:47:45;100765.91;;;11.99;52.72
74310;BME280;62722;51.142;17.052;2023-04-30T10:50:13;100770.06;;;12.03;52.43
74310;BME280;62722;51.142;17.052;2023-04-30T10:52:40;100765.69;;;12.02;53.16
74310;BME280;62722;51.142;17.052;2023-04-30T10:55:08;100776.94;;;12.06;51.57
74310;BME280;62722;51.142;17.052;2023-04-30T10:57:42;100752.06;;;12.08;50.61
74310;BME280;62722;51.142;17.052;2023-04-30T11:00:24;100764.75;;;12.03;50.61
74310;BME280;62722;51.142;17.052;2023-04-30T11:02:55;100763.91;;;12.03;52.04
74310;BME280;62722;51.142;17.052;2023-04-30T11:05:34;100756.88;;;12.16;52.56
74310;BME280;62722;51.142;17.052;2023-04-30T11:08:02;100775.22;;;12.19;52.64
74310;BME280;62722;51.142;17.052;2023-04-30T11:10:32;100760.38;;;12.16;52.02
74310;BME280;62722;51.142;17.052;2023-04-30T11:13:03;100757.44;;;12.21;51.39
74310;BME280;62722;51.142;17.052;2023-04-30T11:15:38;100756.22;;;12.12;51.27
74310;BME280;62722;51.142;17.052;2023-04-30T11:18:06;100742.81;;;12.15;51.76
74310;BME280;62722;51.142;17.052;2023-04-30T11:20:39;100756.28;;;12.25;51.65
74310;BME280;62722;51.142;17.052;2023-04-30T11:23:10;100740.50;;;12.24;51.25
74310;BME280;62722;51.142;17.052;2023-04-30T11:25:40;100751.16;;;12.36;52.21
74310;BME280;62722;51.142;17.052;2023-04-30T11:28:10;100750.66;;;12.44;51.58
74310;BME280;62722;51.142;17.052;2023-04-30T11:30:41;100749.25;;;12.38;49.56
74310;BME280;62722;51.142;17.052;2023-04-30T11:33:16;100754.38;;;12.41;49.23
74310;BME280;62722;51.142;17.052;2023-04-30T11:35:44;100758.41;;;12.47;49.29
74310;BME280;62722;51.142;17.052;2023-04-30T11:38:12;100752.59;;;12.54;51.21
74310;BME280;62722;51.142;17.052;2023-04-30T11:40:40;100753.78;;;12.63;48.03
74310;BME280;62722;51.142;17.052;2023-04-30T11:43:20;100752.81;;;12.64;48.15
74310;BME280;62722;51.142;17.052;2023-04-30T11:46:02;100747.44;;;12.65;47.25
74310;BME280;62722;51.142;17.052;2023-04-30T11:48:30;100757.81;;;12.68;46.54
74310;BME280;62722;51.142;17.052;2023-04-30T11:50:58;100750.72;;;12.69;46.04
74310;BME280;62722;51.142;17.052;2023-04-30T11:53:28;100760.69;;;12.65;45.39
74310;BME280;62722;51.142;17.052;2023-04-30T11:55:56;100761.19;;;12.58;46.00
74310;BME280;62722;51.142;17.052;2023-04-30T11:58:23;100752.69;;;12.53;47.86
74310;BME280;62722;51.142;17.052;2023-04-30T12:00:51;100755.81;;;12.59;47.92
74310;BME280;62722;51.142;17.052;2023-04-30T12:03:20;100752.53;;;12.68;46.29
74310;BME280;62722;51.142;17.052;2023-04-30T12:05:47;100748.94;;;12.69;44.42
74310;BME280;62722;51.142;17.052;2023-04-30T12:08:14;100756.25;;;12.79;45.53
74310;BME280;62722;51.142;17.052;2023-04-30T12:10:45;100755.94;;;12.83;45.76
74310;BME280;62722;51.142;17.052;2023-04-30T12:13:13;100751.50;;;12.84;46.78
74310;BME280;62722;51.142;17.052;2023-04-30T12:15:41;100766.53;;;12.83;45.98
74310;BME280;62722;51.142;17.052;2023-04-30T12:18:12;100751.72;;;12.81;47.35
74310;BME280;62722;51.142;17.052;2023-04-30T12:20:42;100767.94;;;12.89;47.84
74310;BME280;62722;51.142;17.052;2023-04-30T12:23:09;100760.09;;;12.87;45.84
74310;BME280;62722;51.142;17.052;2023-04-30T12:25:40;100754.16;;;12.84;43.33
74310;BME280;62722;51.142;17.052;2023-04-30T12:28:09;100752.44;;;12.83;44.16
74310;BME280;62722;51.142;17.052;2023-04-30T12:30:36;100755.09;;;12.83;44.96
74310;BME280;62722;51.142;17.052;2023-04-30T12:33:04;100746.41;;;12.81;45.17
74310;BME280;62722;51.142;17.052;2023-04-30T12:35:32;100748.56;;;12.88;45.61
74310;BME280;62722;51.142;17.052;2023-04-30T12:38:05;100731.91;;;12.86;44.85
74310;BME280;62722;51.142;17.052;2023-04-30T12:40:33;100735.66;;;12.96;45.41
74310;BME280;62722;51.142;17.052;2023-04-30T12:43:01;100755.25;;;13.06;43.74
74310;BME280;62722;51.142;17.052;2023-04-30T12:45:48;100742.31;;;13.02;43.42
74310;BME280;62722;51.142;17.052;2023-04-30T12:48:23;100749.41;;;13.01;43.02
74310;BME280;62722;51.142;17.052;2023-04-30T12:50:52;100745.19;;;12.99;42.97
74310;BME280;62722;51.142;17.052;2023-04-30T12:53:21;100736.50;;;12.97;43.99